Time;durP1;ratioP1;P1;durP2;ratioP2;P2;SDS_P1;SDS_P2;PMS_P1;PMS_P2;Temp;Humidity;BMP_temperature;BMP_pressure;BME280_temperature;BME280_humidity;BME280_pressure;Samples;Min_cycle;Max_cycle;Signal;HPM_P1;HPM_P2
2022/03/25 00:01:39;;;;;;;;;;;;;;;;;;5034630;28;19990;-73
2022/03/25 00:04:07;;;;;;;;;;;;;;;;;;5035540;28;19948;-73
2022/03/25 00:06:34;;;;;;;;;;;;;;;;;;5035594;28;20448;-73
2022/03/25 00:09:05;;;;;;;;;;;;;;;;;;5035543;28;19942;-74
2022/03/25 00:11:33;;;;;;;;;;;;;;;;;;5034413;28;19950;-73
2022/03/25 00:14:02;;;;;;;;;;;;;;;;;;5034933;28;19956;-75
2022/03/25 00:16:29;;;;;;;;;;;;;;;;;;5035321;28;20041;-74
2022/03/25 00:18:57;;;;;;;;;;;;;;;;;;5035567;28;19945;-73
2022/03/25 00:21:24;;;;;;;;;;;;;;;;;;5035569;28;20461;-74
2022/03/25 00:23:52;;;;;;;;;;;;;;;;;;5035012;28;19990;-73
2022/03/25 00:26:21;;;;;;;;;;;;;;;;;;5035357;28;20025;-73
2022/03/25 00:28:49;;;;;;;;;;;;;;;;;;5035197;28;19945;-73
2022/03/25 00:31:17;;;;;;;;;;;;;;;;;;5050257;28;20015;-73
2022/03/25 00:33:49;;;;;;;;;;;;;;;;;;5034316;28;19952;-73
2022/03/25 00:36:18;;;;;;;;;;;;;;;;;;5035287;28;20026;-74
2022/03/25 00:38:48;;;;;;;;;;;;;;;;;;5035165;28;19951;-73
2022/03/25 00:41:16;;;;;;;;;;;;;;;;;;5050624;28;20045;-74
2022/03/25 00:43:44;;;;;;;;;;;;;;;;;;5035005;28;20374;-73
2022/03/25 00:46:12;;;;;;;;;;;;;;;;;;5049897;28;19947;-74
2022/03/25 00:48:40;;;;;;;;;;;;;;;;;;5033667;28;19938;-73
2022/03/25 00:51:08;;;;;;;;;;;;;;;;;;5049650;28;20406;-73
2022/03/25 00:53:35;;;;;;;;;;;;;;;;;;5050041;28;19965;-73
2022/03/25 00:56:03;;;;;;;;;;;;;;;;;;5050369;28;19983;-74
2022/03/25 00:58:30;;;;;;;;;;;;;;;;;;5033379;28;19957;-74
2022/03/25 01:00:58;;;;;;;;;;;;;;;;;;5032911;28;19947;-74
2022/03/25 01:03:25;;;;;;;;;;;;;;;;;;5033842;28;19966;-73
2022/03/25 01:05:53;;;;;;;;;;;;;;;;;;5034634;28;19939;-73
2022/03/25 01:08:22;;;;;;;;;;;;;;;;;;5033321;28;19940;-73
2022/03/25 01:10:49;;;;;;;;;;;;;;;;;;5034914;28;19949;-74
2022/03/25 01:13:17;;;;;;;;;;;;;;;;;;5033045;28;19951;-74
2022/03/25 01:15:44;;;;;;;;;;;;;;;;;;5034601;28;20361;-73
2022/03/25 01:18:12;;;;;;;;;;;;;;;;;;5034614;28;20044;-73
2022/03/25 01:20:39;;;;;;;;;;;;;;;;;;5033289;28;20043;-73
2022/03/25 01:23:06;;;;;;;;;;;;;;;;;;5032466;28;20051;-73
2022/03/25 01:25:36;;;;;;;;;;;;;;;;;;5034468;28;20415;-73
2022/03/25 01:28:03;;;;;;;;;;;;;;;;;;5032778;28;20340;-73
2022/03/25 01:30:32;;;;;;;;;;;;;;;;;;5032767;28;20397;-73
2022/03/25 01:33:00;;;;;;;;;;;;;;;;;;5032648;28;20001;-73
2022/03/25 01:35:28;;;;;;;;;;;;;;;;;;5033832;28;20030;-73
2022/03/25 01:37:56;;;;;;;;;;;;;;;;;;5033721;28;20498;-73
2022/03/25 01:40:23;;;;;;;;;;;;;;;;;;5032685;28;20402;-73
2022/03/25 01:42:51;;;;;;;;;;;;;;;;;;5033788;28;20476;-73
2022/03/25 01:45:18;;;;;;;;;;;;;;;;;;5032340;28;19949;-73
2022/03/25 01:47:45;;;;;;;;;;;;;;;;;;5032608;28;20006;-73
2022/03/25 01:50:13;;;;;;;;;;;;;;;;;;5032622;28;19944;-73
2022/03/25 01:52:40;;;;;;;;;;;;;;;;;;5033479;28;19955;-74
2022/03/25 01:55:10;;;;;;;;;;;;;;;;;;5034004;28;20391;-74
2022/03/25 01:57:37;;;;;;;;;;;;;;;;;;5032619;28;20035;-73
2022/03/25 02:00:06;;;;;;;;;;;;;;;;;;5031916;28;20045;-74
2022/03/25 02:02:46;;;;;;;;;;;;;;;;;;5034215;28;19942;-73
2022/03/25 02:05:15;;;;;;;;;;;;;;;;;;5032428;28;19998;-73
2022/03/25 02:07:44;;;;;;;;;;;;;;;;;;5032278;28;20407;-73
2022/03/25 02:10:11;;;;;;;;;;;;;;;;;;5031089;28;19953;-74
2022/03/25 02:12:41;;;;;;;;;;;;;;;;;;5031606;28;20382;-73
2022/03/25 02:15:11;;;;;;;;;;;;;;;;;;5048863;28;19948;-72
2022/03/25 02:17:38;;;;;;;;;;;;;;;;;;5048287;28;20424;-74
2022/03/25 02:20:08;;;;;;;;;;;;;;;;;;5048949;28;19952;-74
2022/03/25 02:22:39;;;;;;;;;;;;;;;;;;5048746;28;20039;-73
2022/03/25 02:25:10;;;;;;;;;;;;;;;;;;5048064;28;19950;-73
2022/03/25 02:27:38;;;;;;;;;;;;;;;;;;5048321;28;19948;-73
2022/03/25 02:30:07;;;;;;;;;;;;;;;;;;5048376;28;20451;-74
2022/03/25 02:32:35;;;;;;;;;;;;;;;;;;5048044;28;19949;-74
2022/03/25 02:35:03;;;;;;;;;;;;;;;;;;5048077;28;19957;-73
2022/03/25 02:37:30;;;;;;;;;;;;;;;;;;5032943;28;19940;-73
2022/03/25 02:39:59;;;;;;;;;;;;;;;;;;5048124;28;19949;-74
2022/03/25 02:42:27;;;;;;;;;;;;;;;;;;5032171;28;19954;-74
2022/03/25 02:44:55;;;;;;;;;;;;;;;;;;5048511;28;19951;-73
2022/03/25 02:47:23;;;;;;;;;;;;;;;;;;5048273;28;20422;-74
2022/03/25 02:49:51;;;;;;;;;;;;;;;;;;5048289;28;20392;-74
2022/03/25 02:52:19;;;;;;;;;;;;;;;;;;5033021;28;20442;-73
2022/03/25 02:54:47;;;;;;;;;;;;;;;;;;5033240;28;19951;-74
2022/03/25 02:57:15;;;;;;;;;;;;;;;;;;5048009;28;20403;-74
2022/03/25 02:59:43;;;;;;;;;;;;;;;;;;5032595;28;20032;-74
2022/03/25 03:02:13;;;;;;;;;;;;;;;;;;5033239;28;20375;-74
2022/03/25 03:04:41;;;;;;;;;;;;;;;;;;5031897;28;20388;-73
2022/03/25 03:07:08;;;;;;;;;;;;;;;;;;5032723;28;20003;-73
2022/03/25 03:09:37;;;;;;;;;;;;;;;;;;5032596;28;19953;-73
2022/03/25 03:12:04;;;;;;;;;;;;;;;;;;5032664;28;19950;-73
2022/03/25 03:14:32;;;;;;;;;;;;;;;;;;5032871;28;20370;-74
2022/03/25 03:17:01;;;;;;;;;;;;;;;;;;5033062;28;19951;-74
2022/03/25 03:19:29;;;;;;;;;;;;;;;;;;5033064;28;19947;-73
2022/03/25 03:21:57;;;;;;;;;;;;;;;;;;5032961;28;19949;-73
2022/03/25 03:24:25;;;;;;;;;;;;;;;;;;5030959;28;20015;-73
2022/03/25 03:26:53;;;;;;;;;;;;;;;;;;5032517;28;20041;-73
2022/03/25 03:29:21;;;;;;;;;;;;;;;;;;5032497;28;19968;-73
2022/03/25 03:31:48;;;;;;;;;;;;;;;;;;5032428;28;19960;-73
2022/03/25 03:34:16;;;;;;;;;;;;;;;;;;5032677;28;19994;-73
2022/03/25 03:36:44;;;;;;;;;;;;;;;;;;5032320;28;19951;-73
2022/03/25 03:39:12;;;;;;;;;;;;;;;;;;5048035;28;19949;-73
2022/03/25 03:41:40;;;;;;;;;;;;;;;;;;5032932;28;19972;-73
2022/03/25 03:44:08;;;;;;;;;;;;;;;;;;5047869;28;19952;-74
2022/03/25 03:46:36;;;;;;;;;;;;;;;;;;5033205;28;20384;-73
2022/03/25 03:49:05;;;;;;;;;;;;;;;;;;5036187;28;19956;-73
2022/03/25 03:51:33;;;;;;;;;;;;;;;;;;5035895;28;19946;-74
2022/03/25 03:54:00;;;;;;;;;;;;;;;;;;5051328;28;20033;-74
2022/03/25 03:56:28;;;;;;;;;;;;;;;;;;5035981;28;19951;-73
2022/03/25 03:58:55;;;;;;;;;;;;;;;;;;5036047;28;20002;-73
2022/03/25 04:01:23;;;;;;;;;;;;;;;;;;5036122;28;19997;-73
2022/03/25 04:03:53;;;;;;;;;;;;;;;;;;5050905;28;19986;-73
2022/03/25 04:06:22;;;;;;;;;;;;;;;;;;5050871;28;20386;-73
2022/03/25 04:08:49;;;;;;;;;;;;;;;;;;5050953;28;19957;-73
2022/03/25 04:11:16;;;;;;;;;;;;;;;;;;5035690;28;20423;-74
2022/03/25 04:13:45;;;;;;;;;;;;;;;;;;5035408;28;19949;-74
2022/03/25 04:16:12;;;;;;;;;;;;;;;;;;5051008;28;20452;-73
2022/03/25 04:18:40;;;;;;;;;;;;;;;;;;5050788;28;19943;-73
2022/03/25 04:21:07;;;;;;;;;;;;;;;;;;5035738;28;20046;-73
2022/03/25 04:23:36;;;;;;;;;;;;;;;;;;5035848;28;19958;-73
2022/03/25 04:26:05;;;;;;;;;;;;;;;;;;5035761;28;19944;-73
2022/03/25 04:28:32;;;;;;;;;;;;;;;;;;5035257;28;20049;-73
2022/03/25 04:31:01;;;;;;;;;;;;;;;;;;5035111;28;19942;-73
2022/03/25 04:33:31;;;;;;;;;;;;;;;;;;5035462;28;20031;-74
2022/03/25 04:35:58;;;;;;;;;;;;;;;;;;5035074;28;19952;-73
2022/03/25 04:38:26;;;;;;;;;;;;;;;;;;5034981;28;20322;-74
2022/03/25 04:40:54;;;;;;;;;;;;;;;;;;5035480;28;19946;-74
2022/03/25 04:43:21;;;;;;;;;;;;;;;;;;5035268;28;20031;-73
2022/03/25 04:45:48;;;;;;;;;;;;;;;;;;5035149;28;19950;-73
2022/03/25 04:48:17;;;;;;;;;;;;;;;;;;5034825;28;19967;-74
2022/03/25 04:50:44;;;;;;;;;;;;;;;;;;5034982;28;19975;-74
2022/03/25 04:53:12;;;;;;;;;;;;;;;;;;5034756;28;19954;-74
2022/03/25 04:55:39;;;;;;;;;;;;;;;;;;5035000;28;19945;-73
2022/03/25 04:58:07;;;;;;;;;;;;;;;;;;5034358;28;19945;-74
2022/03/25 05:00:35;;;;;;;;;;;;;;;;;;5035075;28;20402;-73
2022/03/25 05:03:02;;;;;;;;;;;;;;;;;;5034835;28;19985;-73
2022/03/25 05:05:32;;;;;;;;;;;;;;;;;;5034670;28;19996;-74
2022/03/25 05:07:59;;;;;;;;;;;;;;;;;;5034719;28;19954;-74
2022/03/25 05:10:27;;;;;;;;;;;;;;;;;;5048320;28;20424;-74
2022/03/25 05:13:02;;;;;;;;;;;;;;;;;;5041443;28;20393;-73
2022/03/25 05:15:31;;;;;;;;;;;;;;;;;;5027681;28;19980;-74
2022/03/25 05:17:59;;;;;;;;;;;;;;;;;;5017689;28;20067;-74
2022/03/25 05:20:26;;;;;;;;;;;;;;;;;;5027865;28;19955;-74
2022/03/25 05:22:54;;;;;;;;;;;;;;;;;;5034024;28;19956;-74
2022/03/25 05:25:22;;;;;;;;;;;;;;;;;;5026357;28;19943;-74
2022/03/25 05:27:50;;;;;;;;;;;;;;;;;;5030294;28;20323;-74
2022/03/25 05:30:17;;;;;;;;;;;;;;;;;;5028568;28;19971;-73
2022/03/25 05:32:44;;;;;;;;;;;;;;;;;;5029912;28;19980;-73
2022/03/25 05:35:17;;;;;;;;;;;;;;;;;;5031732;28;19972;-74
2022/03/25 05:37:44;;;;;;;;;;;;;;;;;;5025478;28;19940;-74
2022/03/25 05:40:12;;;;;;;;;;;;;;;;;;5027731;28;19946;-74
2022/03/25 05:42:39;;;;;;;;;;;;;;;;;;5032973;28;19958;-74
2022/03/25 05:45:07;;;;;;;;;;;;;;;;;;5028578;28;19946;-74
2022/03/25 05:47:34;;;;;;;;;;;;;;;;;;5030665;28;19954;-75
2022/03/25 05:50:04;;;;;;;;;;;;;;;;;;5027342;28;19958;-75
2022/03/25 05:52:35;;;;;;;;;;;;;;;;;;5040467;28;20038;-75
2022/03/25 05:55:06;;;;;;;;;;;;;;;;;;5028339;28;20333;-75
2022/03/25 05:57:36;;;;;;;;;;;;;;;;;;5017521;28;19947;-75
2022/03/25 06:00:03;;;;;;;;;;;;;;;;;;5031698;28;19947;-75
2022/03/25 06:02:38;;;;;;;;;;;;;;;;;;5029464;28;19950;-75
2022/03/25 06:05:06;;;;;;;;;;;;;;;;;;5030425;28;20004;-75
2022/03/25 06:07:36;;;;;;;;;;;;;;;;;;5032810;28;20455;-75
2022/03/25 06:10:04;;;;;;;;;;;;;;;;;;5030558;28;19949;-75
2022/03/25 06:12:31;;;;;;;;;;;;;;;;;;5048107;28;19995;-76
2022/03/25 06:14:59;;;;;;;;;;;;;;;;;;5028292;28;19941;-75
2022/03/25 06:17:26;;;;;;;;;;;;;;;;;;5026185;28;20399;-75
2022/03/25 06:19:54;;;;;;;;;;;;;;;;;;5031578;28;20050;-75
2022/03/25 06:22:24;;;;;;;;;;;;;;;;;;5023906;28;19942;-73
2022/03/25 06:24:52;;;;;;;;;;;;;;;;;;5024732;28;20008;-75
2022/03/25 06:27:19;;;;;;;;;;;;;;;;;;5027928;28;20083;-75
2022/03/25 06:29:48;;;;;;;;;;;;;;;;;;5021572;28;19961;-74
2022/03/25 06:32:19;;;;;;;;;;;;;;;;;;5020733;28;20343;-74
2022/03/25 06:34:47;;;;;;;;;;;;;;;;;;5022290;28;20480;-74
2022/03/25 06:37:18;;;;;;;;;;;;;;;;;;5012714;28;20065;-74
2022/03/25 06:39:46;;;;;;;;;;;;;;;;;;5011910;28;19955;-74
2022/03/25 06:42:13;;;;;;;;;;;;;;;;;;5022896;28;19947;-74
2022/03/25 06:44:41;;;;;;;;;;;;;;;;;;5028314;28;19950;-74
2022/03/25 06:47:10;;;;;;;;;;;;;;;;;;5028346;28;20038;-74
2022/03/25 06:49:40;;;;;;;;;;;;;;;;;;5031984;28;19949;-74
2022/03/25 06:52:09;;;;;;;;;;;;;;;;;;5029937;28;19949;-75
2022/03/25 06:54:36;;;;;;;;;;;;;;;;;;5031683;28;19954;-75
2022/03/25 06:57:05;;;;;;;;;;;;;;;;;;5032253;28;19945;-74
2022/03/25 06:59:37;;;;;;;;;;;;;;;;;;5031706;28;19938;-75
2022/03/25 07:02:05;;;;;;;;;;;;;;;;;;5032017;28;19990;-74
2022/03/25 07:04:33;;;;;;;;;;;;;;;;;;5032634;28;19943;-75
2022/03/25 07:07:00;;;;;;;;;;;;;;;;;;5031446;28;19947;-75
2022/03/25 07:09:29;;;;;;;;;;;;;;;;;;5040722;22;19941;-75
2022/03/25 07:11:57;;;;;;;;;;;;;;;;;;5032548;28;20415;-75
2022/03/25 07:14:27;;;;;;;;;;;;;;;;;;5047903;28;19962;-74
2022/03/25 07:16:58;;;;;;;;;;;;;;;;;;5032820;28;20332;-75
2022/03/25 07:19:28;;;;;;;;;;;;;;;;;;5031143;28;19941;-75
2022/03/25 07:21:55;;;;;;;;;;;;;;;;;;5034239;28;19951;-75
2022/03/25 07:24:23;;;;;;;;;;;;;;;;;;5035768;28;20035;-74
2022/03/25 07:26:51;;;;;;;;;;;;;;;;;;5036416;28;19941;-75
2022/03/25 07:29:21;;;;;;;;;;;;;;;;;;5051176;28;20374;-75
2022/03/25 07:31:49;;;;;;;;;;;;;;;;;;5036542;28;20308;-74
2022/03/25 07:34:16;;;;;;;;;;;;;;;;;;5036430;28;19950;-76
2022/03/25 07:36:44;;;;;;;;;;;;;;;;;;5051276;28;20060;-75
2022/03/25 07:39:11;;;;;;;;;;;;;;;;;;5036037;28;20410;-75
2022/03/25 07:41:40;;;;;;;;;;;;;;;;;;5036107;28;19953;-75
2022/03/25 07:44:09;;;;;;;;;;;;;;;;;;5036168;28;20046;-75
2022/03/25 07:46:36;;;;;;;;;;;;;;;;;;5035749;28;19960;-75
2022/03/25 07:49:03;;;;;;;;;;;;;;;;;;5035657;28;19987;-75
2022/03/25 07:51:31;;;;;;;;;;;;;;;;;;5035885;28;19938;-75
2022/03/25 07:54:01;;;;;;;;;;;;;;;;;;5035572;28;19950;-75
2022/03/25 07:56:29;;;;;;;;;;;;;;;;;;5035574;28;19947;-75
2022/03/25 07:58:59;;;;;;;;;;;;;;;;;;5036174;28;19950;-75
2022/03/25 08:01:28;;;;;;;;;;;;;;;;;;5034272;28;19954;-75
2022/03/25 08:03:56;;;;;;;;;;;;;;;;;;5035654;28;20327;-75
2022/03/25 08:06:23;;;;;;;;;;;;;;;;;;5035478;28;20403;-75
2022/03/25 08:08:50;;;;;;;;;;;;;;;;;;5035674;28;19978;-75
2022/03/25 08:11:20;;;;;;;;;;;;;;;;;;5035081;28;19954;-75
2022/03/25 08:13:47;;;;;;;;;;;;;;;;;;5035062;28;20036;-75
2022/03/25 08:16:18;;;;;;;;;;;;;;;;;;5035234;28;19949;-74
2022/03/25 08:18:47;;;;;;;;;;;;;;;;;;5035398;28;20351;-75
2022/03/25 08:21:14;;;;;;;;;;;;;;;;;;5035812;28;19986;-75
2022/03/25 08:29:14;;;;;;;;;;;;;;;;;;5035292;28;19945;-76
2022/03/25 08:31:44;;;;;;;;;;;;;;;;;;5035175;28;20052;-75
2022/03/25 08:34:14;;;;;;;;;;;;;;;;;;5034519;28;19948;-75
2022/03/25 08:36:42;;;;;;;;;;;;;;;;;;5050187;28;19950;-75
2022/03/25 08:39:11;;;;;;;;;;;;;;;;;;5034772;28;20031;-76
2022/03/25 08:41:38;;;;;;;;;;;;;;;;;;5035554;28;20076;-75
2022/03/25 08:44:06;;;;;;;;;;;;;;;;;;5035405;28;19939;-75
2022/03/25 08:46:39;;;;;;;;;;;;;;;;;;5035021;28;20284;-75
2022/03/25 08:49:10;;;;;;;;;;;;;;;;;;5034876;28;19949;-76
2022/03/25 08:51:37;;;;;;;;;;;;;;;;;;5035024;28;20436;-75
2022/03/25 08:54:05;;;;;;;;;;;;;;;;;;5050281;28;19959;-75
2022/03/25 08:56:36;;;;;;;;;;;;;;;;;;5035165;28;20365;-75
2022/03/25 08:59:05;;;;;;;;;;;;;;;;;;5035003;28;19970;-76
2022/03/25 09:01:34;;;;;;;;;;;;;;;;;;5034440;28;20445;-76
2022/03/25 09:04:02;;;;;;;;;;;;;;;;;;5033280;28;19965;-76
2022/03/25 09:06:29;;;;;;;;;;;;;;;;;;5049649;28;19956;-76
2022/03/25 09:08:59;;;;;;;;;;;;;;;;;;5034299;28;19946;-76
2022/03/25 09:11:27;;;;;;;;;;;;;;;;;;5034251;28;19944;-75
2022/03/25 09:13:55;;;;;;;;;;;;;;;;;;5034832;28;20032;-76
2022/03/25 09:16:22;;;;;;;;;;;;;;;;;;5045506;28;20419;-76
2022/03/25 09:18:50;;;;;;;;;;;;;;;;;;5034230;28;20069;-75
2022/03/25 09:21:20;;;;;;;;;;;;;;;;;;5049620;28;19950;-75
2022/03/25 09:23:50;;;;;;;;;;;;;;;;;;5034082;28;19947;-73
2022/03/25 09:26:17;;;;;;;;;;;;;;;;;;5033476;28;19952;-73
2022/03/25 09:28:45;;;;;;;;;;;;;;;;;;5048902;28;20423;-74
2022/03/25 09:31:14;;;;;;;;;;;;;;;;;;5033841;28;20382;-75
2022/03/25 09:36:49;;;;;;;;;;;;;;;;;;5033725;28;19999;-75
2022/03/25 09:39:16;;;;;;;;;;;;;;;;;;5034089;28;19945;-76
2022/03/25 09:41:43;;;;;;;;;;;;;;;;;;5033569;28;19948;-76
2022/03/25 09:44:11;;;;;;;;;;;;;;;;;;5032629;28;20365;-75
2022/03/25 09:46:42;;;;;;;;;;;;;;;;;;5048731;28;19963;-75
2022/03/25 09:49:10;;;;;;;;;;;;;;;;;;5033352;28;19991;-76
2022/03/25 09:51:41;;;;;;;;;;;;;;;;;;5034307;28;19993;-75
2022/03/25 09:54:10;;;;;;;;;;;;;;;;;;5033599;28;20470;-73
2022/03/25 09:56:37;;;;;;;;;;;;;;;;;;5033715;28;19967;-72
2022/03/25 09:59:06;;;;;;;;;;;;;;;;;;5033575;28;19942;-75
2022/03/25 10:01:34;;;;;;;;;;;;;;;;;;5033263;28;19955;-75
2022/03/25 10:04:08;;;;;;;;;;;;;;;;;;5048259;28;19976;-74
2022/03/25 10:06:38;;;;;;;;;;;;;;;;;;5032263;28;20343;-75
2022/03/25 10:09:07;;;;;;;;;;;;;;;;;;5033052;28;19950;-75
2022/03/25 10:11:35;;;;;;;;;;;;;;;;;;5048899;28;19942;-75
2022/03/25 10:14:02;;;;;;;;;;;;;;;;;;5033274;28;19949;-75
2022/03/25 10:16:31;;;;;;;;;;;;;;;;;;5048647;28;19950;-76
2022/03/25 10:18:59;;;;;;;;;;;;;;;;;;5032239;28;19946;-75
2022/03/25 10:21:27;;;;;;;;;;;;;;;;;;5033413;28;19963;-76
2022/03/25 10:23:56;;;;;;;;;;;;;;;;;;5033333;28;19987;-75
2022/03/25 10:26:24;;;;;;;;;;;;;;;;;;5032956;28;20308;-75
2022/03/25 10:28:55;;;;;;;;;;;;;;;;;;5033431;28;19951;-76
2022/03/25 10:31:24;;;;;;;;;;;;;;;;;;5032856;28;19947;-75
2022/03/25 10:33:58;;;;;;;;;;;;;;;;;;5033240;28;20398;-74
2022/03/25 10:36:27;;;;;;;;;;;;;;;;;;5048035;28;19941;-75
2022/03/25 10:38:57;;;;;;;;;;;;;;;;;;5033135;28;20054;-74
2022/03/25 10:41:24;;;;;;;;;;;;;;;;;;5031834;28;20021;-75
2022/03/25 10:43:52;;;;;;;;;;;;;;;;;;5033160;28;20397;-75
2022/03/25 10:46:20;;;;;;;;;;;;;;;;;;5032897;28;20177;-75
2022/03/25 10:48:47;;;;;;;;;;;;;;;;;;5032798;28;19954;-76
2022/03/25 10:51:14;;;;;;;;;;;;;;;;;;5032995;28;20323;-75
2022/03/25 10:53:43;;;;;;;;;;;;;;;;;;5033038;28;19940;-75
2022/03/25 10:56:11;;;;;;;;;;;;;;;;;;5048615;28;19956;-75
2022/03/25 10:58:38;;;;;;;;;;;;;;;;;;5037179;28;19955;-75
2022/03/25 11:01:06;;;;;;;;;;;;;;;;;;5036853;28;20432;-75
2022/03/25 11:03:34;;;;;;;;;;;;;;;;;;5052499;28;19970;-76
2022/03/25 11:06:01;;;;;;;;;;;;;;;;;;5037115;28;20365;-74
2022/03/25 11:08:30;;;;;;;;;;;;;;;;;;5052100;28;20478;-75
2022/03/25 11:10:58;;;;;;;;;;;;;;;;;;5036939;28;20414;-76
2022/03/25 11:13:26;;;;;;;;;;;;;;;;;;5036225;28;19950;-74
2022/03/25 11:15:54;;;;;;;;;;;;;;;;;;5036891;28;19942;-74
2022/03/25 11:18:22;;;;;;;;;;;;;;;;;;5036728;28;19944;-75
2022/03/25 11:20:49;;;;;;;;;;;;;;;;;;5036955;28;19947;-75
2022/03/25 11:23:17;;;;;;;;;;;;;;;;;;5036381;28;20368;-75
2022/03/25 11:25:44;;;;;;;;;;;;;;;;;;5036450;28;19950;-75
2022/03/25 11:28:12;;;;;;;;;;;;;;;;;;5036813;28;19956;-75
2022/03/25 11:30:42;;;;;;;;;;;;;;;;;;5036332;28;19954;-75
2022/03/25 11:33:12;;;;;;;;;;;;;;;;;;5036346;28;19982;-75
2022/03/25 11:35:42;;;;;;;;;;;;;;;;;;5036302;28;20040;-75
2022/03/25 11:38:13;;;;;;;;;;;;;;;;;;5036244;28;19952;-75
2022/03/25 11:40:45;;;;;;;;;;;;;;;;;;5036117;28;19992;-75
2022/03/25 11:43:12;;;;;;;;;;;;;;;;;;5036528;28;19938;-73
2022/03/25 11:45:41;;;;;;;;;;;;;;;;;;5036383;28;19937;-75
2022/03/25 11:48:08;;;;;;;;;;;;;;;;;;5036118;28;20335;-76
2022/03/25 11:50:35;;;;;;;;;;;;;;;;;;5051280;28;19954;-75
2022/03/25 11:53:03;;;;;;;;;;;;;;;;;;5036115;28;19949;-75
2022/03/25 11:55:31;;;;;;;;;;;;;;;;;;5036012;28;20010;-75
2022/03/25 11:57:58;;;;;;;;;;;;;;;;;;5035859;28;19950;-75
2022/03/25 12:00:26;;;;;;;;;;;;;;;;;;5034125;28;19978;-75
2022/03/25 12:02:57;;;;;;;;;;;;;;;;;;5035879;28;19986;-75
2022/03/25 12:05:24;;;;;;;;;;;;;;;;;;5036008;28;20431;-76
2022/03/25 12:07:52;;;;;;;;;;;;;;;;;;5035723;28;19996;-76
2022/03/25 12:10:21;;;;;;;;;;;;;;;;;;5050994;28;19949;-76
2022/03/25 12:12:48;;;;;;;;;;;;;;;;;;5035525;28;20091;-75
2022/03/25 12:15:15;;;;;;;;;;;;;;;;;;5034375;28;19966;-76
2022/03/25 12:17:43;;;;;;;;;;;;;;;;;;5035365;28;19950;-76
2022/03/25 12:20:10;;;;;;;;;;;;;;;;;;5035670;28;20150;-76
2022/03/25 12:22:40;;;;;;;;;;;;;;;;;;5035539;28;19942;-77
2022/03/25 12:25:07;;;;;;;;;;;;;;;;;;5035130;28;19993;-76
2022/03/25 12:27:34;;;;;;;;;;;;;;;;;;5035641;28;19947;-76
2022/03/25 12:30:02;;;;;;;;;;;;;;;;;;5035312;28;19947;-76
2022/03/25 12:32:31;;;;;;;;;;;;;;;;;;5035253;28;19957;-75
2022/03/25 12:34:58;;;;;;;;;;;;;;;;;;5035188;28;19940;-75
2022/03/25 12:37:25;;;;;;;;;;;;;;;;;;5035145;28;19937;-75
2022/03/25 12:39:52;;;;;;;;;;;;;;;;;;5032948;28;20428;-75
2022/03/25 12:42:22;;;;;;;;;;;;;;;;;;5022237;28;19959;-75
2022/03/25 12:44:49;;;;;;;;;;;;;;;;;;5024313;28;20411;-75
2022/03/25 12:47:17;;;;;;;;;;;;;;;;;;5029505;28;19953;-76
2022/03/25 12:49:44;;;;;;;;;;;;;;;;;;5026120;28;19959;-77
2022/03/25 12:52:12;;;;;;;;;;;;;;;;;;5019182;28;19949;-76
2022/03/25 12:54:40;;;;;;;;;;;;;;;;;;5029477;28;20038;-76
2022/03/25 12:57:10;;;;;;;;;;;;;;;;;;5022655;28;20411;-76
2022/03/25 12:59:50;;;;;;;;;;;;;;;;;;5025477;28;20043;-76
2022/03/25 13:02:19;;;;;;;;;;;;;;;;;;5032951;28;19947;-76
2022/03/25 13:04:47;;;;;;;;;;;;;;;;;;5034796;28;19952;-75
2022/03/25 13:07:15;;;;;;;;;;;;;;;;;;5035100;28;20310;-76
2022/03/25 13:09:43;;;;;;;;;;;;;;;;;;5035295;28;19944;-76
2022/03/25 13:12:10;;;;;;;;;;;;;;;;;;5034342;28;20330;-75
2022/03/25 13:14:38;;;;;;;;;;;;;;;;;;5021251;28;19951;-76
2022/03/25 13:17:05;;;;;;;;;;;;;;;;;;5028257;28;20433;-75
2022/03/25 13:19:54;;;;;;;;;;;;;;;;;;5023928;28;20059;-76
2022/03/25 13:22:22;;;;;;;;;;;;;;;;;;5027261;28;19942;-76
2022/03/25 13:24:49;;;;;;;;;;;;;;;;;;5026318;28;20439;-76
2022/03/25 13:27:17;;;;;;;;;;;;;;;;;;5020120;28;20043;-75
2022/03/25 13:29:50;;;;;;;;;;;;;;;;;;5026419;28;20042;-76
2022/03/25 13:32:17;;;;;;;;;;;;;;;;;;5024232;28;20045;-75
2022/03/25 13:34:45;;;;;;;;;;;;;;;;;;5019551;28;19953;-76
2022/03/25 13:37:12;;;;;;;;;;;;;;;;;;5027321;28;19955;-75
2022/03/25 13:39:40;;;;;;;;;;;;;;;;;;5020124;28;19948;-76
2022/03/25 13:42:07;;;;;;;;;;;;;;;;;;5025673;28;19958;-75
2022/03/25 13:44:35;;;;;;;;;;;;;;;;;;5031195;28;19941;-75
2022/03/25 13:47:02;;;;;;;;;;;;;;;;;;5040933;28;19958;-75
2022/03/25 13:49:30;;;;;;;;;;;;;;;;;;5032481;28;20405;-76
2022/03/25 13:51:57;;;;;;;;;;;;;;;;;;5041423;28;19996;-75
2022/03/25 13:54:24;;;;;;;;;;;;;;;;;;5046810;28;20085;-76
2022/03/25 13:56:52;;;;;;;;;;;;;;;;;;5028229;28;19944;-76
2022/03/25 13:59:22;;;;;;;;;;;;;;;;;;5023826;28;21736;-75
2022/03/25 14:01:49;;;;;;;;;;;;;;;;;;5023283;28;19954;-75
2022/03/25 14:04:22;;;;;;;;;;;;;;;;;;5023817;28;19951;-75
2022/03/25 14:06:53;;;;;;;;;;;;;;;;;;5023918;28;20501;-75
2022/03/25 14:09:23;;;;;;;;;;;;;;;;;;5023817;28;20010;-76
2022/03/25 14:11:52;;;;;;;;;;;;;;;;;;5014974;28;20327;-73
2022/03/25 14:14:20;;;;;;;;;;;;;;;;;;5023014;28;20379;-75
2022/03/25 14:16:50;;;;;;;;;;;;;;;;;;5025842;28;19985;-76
2022/03/25 14:19:17;;;;;;;;;;;;;;;;;;5018766;28;19972;-76
2022/03/25 14:21:45;;;;;;;;;;;;;;;;;;5029646;28;19946;-76
2022/03/25 14:24:32;;;;;;;;;;;;;;;;;;5016208;28;20354;-76
2022/03/25 14:27:00;;;;;;;;;;;;;;;;;;5017987;28;19967;-76
2022/03/25 14:29:27;;;;;;;;;;;;;;;;;;5012262;28;20485;-76
2022/03/25 14:31:56;;;;;;;;;;;;;;;;;;5032763;28;20397;-76
2022/03/25 14:34:23;;;;;;;;;;;;;;;;;;5021076;28;19950;-75
2022/03/25 14:36:51;;;;;;;;;;;;;;;;;;5026285;28;19955;-75
2022/03/25 14:39:19;;;;;;;;;;;;;;;;;;5013043;28;20039;-76
2022/03/25 14:41:47;;;;;;;;;;;;;;;;;;5017558;28;19956;-75
2022/03/25 14:44:14;;;;;;;;;;;;;;;;;;5013536;28;19958;-75
2022/03/25 14:46:45;;;;;;;;;;;;;;;;;;5014076;28;20035;-75
2022/03/25 14:49:14;;;;;;;;;;;;;;;;;;5013363;28;19945;-76
2022/03/25 14:51:41;;;;;;;;;;;;;;;;;;5012016;28;19969;-75
2022/03/25 14:54:11;;;;;;;;;;;;;;;;;;5028791;28;19956;-76
2022/03/25 14:56:38;;;;;;;;;;;;;;;;;;5013290;28;20027;-75
2022/03/25 14:59:05;;;;;;;;;;;;;;;;;;5018834;28;20033;-75
2022/03/25 15:01:33;;;;;;;;;;;;;;;;;;5023516;28;19948;-75
2022/03/25 15:04:02;;;;;;;;;;;;;;;;;;5022996;28;19992;-75
2022/03/25 15:06:32;;;;;;;;;;;;;;;;;;5030278;28;19957;-75
2022/03/25 15:09:00;;;;;;;;;;;;;;;;;;5029813;28;19981;-75
2022/03/25 15:11:28;;;;;;;;;;;;;;;;;;5027129;28;19943;-75
2022/03/25 15:13:58;;;;;;;;;;;;;;;;;;5014465;28;19949;-75
2022/03/25 15:16:25;;;;;;;;;;;;;;;;;;5025870;28;20330;-75
2022/03/25 15:18:53;;;;;;;;;;;;;;;;;;5024623;28;19951;-75
2022/03/25 15:21:21;;;;;;;;;;;;;;;;;;5022228;28;19971;-75
2022/03/25 15:23:49;;;;;;;;;;;;;;;;;;5028332;28;20044;-75
2022/03/25 15:26:16;;;;;;;;;;;;;;;;;;5024521;28;20065;-75
2022/03/25 15:28:43;;;;;;;;;;;;;;;;;;5021215;28;19953;-76
2022/03/25 15:37:21;;;;;;;;;;;;;;;;;;4988401;28;19947;-74
2022/03/25 15:40:02;;;;;;;;;;;;;;;;;;4989540;28;19981;-75
2022/03/25 15:42:31;;;;;;;;;;;;;;;;;;4983663;28;19997;-73
2022/03/25 15:45:00;;;;;;;;;;;;;;;;;;4990344;28;19951;-75
2022/03/25 15:47:27;;;;;;;;;;;;;;;;;;4993469;28;20032;-74
2022/03/25 15:49:54;;;;;;;;;;;;;;;;;;4994223;28;20038;-74
2022/03/25 15:52:22;;;;;;;;;;;;;;;;;;4992050;28;19964;-74
2022/03/25 15:54:51;;;;;;;;;;;;;;;;;;4975694;28;19972;-75
2022/03/25 15:57:21;;;;;;;;;;;;;;;;;;4990877;28;19942;-75
2022/03/25 15:59:48;;;;;;;;;;;;;;;;;;4992514;28;20313;-75
2022/03/25 16:02:16;;;;;;;;;;;;;;;;;;4991552;28;20509;-75
2022/03/25 16:04:47;;;;;;;;;;;;;;;;;;4958533;28;19971;-75
2022/03/25 16:07:14;;;;;;;;;;;;;;;;;;4994064;28;19952;-75
2022/03/25 16:09:43;;;;;;;;;;;;;;;;;;4977953;28;19954;-75
2022/03/25 16:12:12;;;;;;;;;;;;;;;;;;5032363;28;20306;-75
2022/03/25 16:14:40;;;;;;;;;;;;;;;;;;5035745;28;19946;-75
2022/03/25 16:17:08;;;;;;;;;;;;;;;;;;5035788;28;19952;-75
2022/03/25 16:19:35;;;;;;;;;;;;;;;;;;5036086;28;19945;-75
2022/03/25 16:22:05;;;;;;;;;;;;;;;;;;5034700;28;19956;-76
2022/03/25 16:24:34;;;;;;;;;;;;;;;;;;5030087;28;19949;-75
2022/03/25 16:27:01;;;;;;;;;;;;;;;;;;5021049;28;19944;-75
2022/03/25 16:29:29;;;;;;;;;;;;;;;;;;5032544;28;20014;-75
2022/03/25 16:31:59;;;;;;;;;;;;;;;;;;5034135;28;19988;-74
2022/03/25 16:34:29;;;;;;;;;;;;;;;;;;5030750;28;19955;-75
2022/03/25 16:36:57;;;;;;;;;;;;;;;;;;5033577;28;19946;-76
2022/03/25 16:39:30;;;;;;;;;;;;;;;;;;5034035;28;19958;-75
2022/03/25 16:42:00;;;;;;;;;;;;;;;;;;5032368;28;19995;-75
2022/03/25 16:44:32;;;;;;;;;;;;;;;;;;5035460;28;20136;-75
2022/03/25 16:47:01;;;;;;;;;;;;;;;;;;5045836;28;19954;-75
2022/03/25 16:49:34;;;;;;;;;;;;;;;;;;5024232;28;19962;-75
2022/03/25 16:52:02;;;;;;;;;;;;;;;;;;5029171;28;19961;-75
2022/03/25 16:54:29;;;;;;;;;;;;;;;;;;5026596;28;19985;-75
2022/03/25 16:56:57;;;;;;;;;;;;;;;;;;5035091;28;20350;-75
2022/03/25 16:59:25;;;;;;;;;;;;;;;;;;5027293;28;19965;-74
2022/03/25 17:02:09;;;;;;;;;;;;;;;;;;5032807;28;19943;-74
2022/03/25 17:04:37;;;;;;;;;;;;;;;;;;5028956;28;19989;-75
2022/03/25 17:07:05;;;;;;;;;;;;;;;;;;5035016;28;19948;-74
2022/03/25 17:09:35;;;;;;;;;;;;;;;;;;5033563;28;19997;-75